Time;durP1;ratioP1;P1;durP2;ratioP2;P2;SDS_P1;SDS_P2;PMS_P1;PMS_P2;Temp;Humidity;BMP_temperature;BMP_pressure;BME280_temperature;BME280_humidity;BME280_pressure;Samples;Min_cycle;Max_cycle;Signal;HPM_P1;HPM_P2
2021/03/11 00:00:40;;;;;;;16.70;8.80;;;6.30;94.40;;;;;;4974108;28;20037;-85
2021/03/11 00:03:07;;;;;;;14.40;9.10;;;6.30;94.70;;;;;;4986634;28;20066;-85
2021/03/11 00:05:34;;;;;;;14.10;8.47;;;6.30;94.80;;;;;;5000002;28;20030;-82
2021/03/11 00:08:00;;;;;;;15.10;8.80;;;6.30;94.80;;;;;;4989067;28;20480;-85
2021/03/11 00:10:26;;;;;;;16.93;9.43;;;6.40;94.40;;;;;;4998108;28;20060;-85
2021/03/11 00:12:51;;;;;;;14.10;7.90;;;6.40;94.10;;;;;;4981775;28;20019;-83
2021/03/11 00:15:20;;;;;;;14.27;8.67;;;6.40;94.20;;;;;;5000030;28;20061;-84
2021/03/11 00:17:46;;;;;;;14.97;8.83;;;6.50;93.90;;;;;;4980900;28;20114;-83
2021/03/11 00:20:22;;;;;;;16.23;8.83;;;6.40;93.60;;;;;;4985337;28;20042;-86
2021/03/11 00:22:49;;;;;;;14.77;8.90;;;6.50;93.70;;;;;;4993250;28;20027;-85
2021/03/11 00:25:18;;;;;;;17.47;9.13;;;6.50;93.90;;;;;;4988277;28;20027;-85
2021/03/11 00:27:43;;;;;;;17.00;9.20;;;6.50;94.20;;;;;;4979472;28;20022;-85
2021/03/11 00:30:11;;;;;;;16.47;8.90;;;6.50;93.80;;;;;;4978069;28;20483;-85
2021/03/11 00:32:37;;;;;;;15.10;9.03;;;6.50;93.90;;;;;;4969634;28;20026;-85
2021/03/11 00:35:04;;;;;;;14.43;8.30;;;6.50;94.20;;;;;;4980332;28;20026;-86
2021/03/11 00:37:30;;;;;;;17.70;8.90;;;6.50;94.30;;;;;;4962992;28;20030;-86
2021/03/11 00:39:55;;;;;;;16.13;9.53;;;6.50;94.20;;;;;;4967618;28;20034;-86
2021/03/11 00:42:21;;;;;;;13.97;8.00;;;6.50;93.90;;;;;;4970234;28;20654;-85
2021/03/11 00:44:47;;;;;;;15.07;9.10;;;6.50;93.80;;;;;;4968647;28;20038;-85
2021/03/11 00:47:14;;;;;;;16.27;9.27;;;6.50;94.00;;;;;;4975763;28;20442;-86
2021/03/11 00:49:40;;;;;;;16.57;9.10;;;6.60;93.90;;;;;;4961171;28;20514;-86
2021/03/11 00:52:06;;;;;;;15.10;8.73;;;6.60;93.90;;;;;;4975423;28;20062;-85
2021/03/11 00:54:31;;;;;;;21.13;8.80;;;6.50;94.10;;;;;;4985111;28;20025;-84
2021/03/11 00:56:57;;;;;;;16.67;9.53;;;6.60;94.30;;;;;;4977497;28;20455;-86
2021/03/11 00:59:23;;;;;;;16.40;9.20;;;6.60;94.10;;;;;;4969095;28;20038;-86
2021/03/11 01:02:05;;;;;;;20.83;9.13;;;6.60;94.40;;;;;;4964718;28;20035;-86
2021/03/11 01:04:31;;;;;;;14.07;8.10;;;6.60;94.30;;;;;;4973367;28;20026;-86
2021/03/11 01:06:57;;;;;;;15.73;8.60;;;6.70;94.60;;;;;;4964386;28;20022;-85
2021/03/11 01:09:22;;;;;;;14.80;8.43;;;6.60;94.60;;;;;;4978955;28;20022;-86
2021/03/11 01:11:48;;;;;;;15.47;8.90;;;6.60;94.60;;;;;;4971517;28;20121;-85
2021/03/11 01:14:14;;;;;;;15.40;8.83;;;6.60;94.50;;;;;;4972282;28;20035;-85
2021/03/11 01:16:41;;;;;;;14.10;8.20;;;6.70;94.80;;;;;;4984678;28;20103;-85
2021/03/11 01:19:07;;;;;;;17.60;8.53;;;6.70;95.30;;;;;;4980602;28;20053;-85
2021/03/11 01:21:32;;;;;;;13.23;7.93;;;6.60;96.00;;;;;;4979193;28;20030;-86
2021/03/11 01:23:58;;;;;;;16.17;8.47;;;6.70;96.30;;;;;;4965806;28;20443;-85
2021/03/11 01:26:24;;;;;;;15.63;8.70;;;6.70;96.90;;;;;;4963059;28;20034;-86
2021/03/11 01:28:49;;;;;;;14.10;8.20;;;6.70;97.10;;;;;;4965126;28;20038;-85
2021/03/11 01:31:15;;;;;;;12.47;6.73;;;6.80;97.40;;;;;;4971708;28;20036;-85
2021/03/11 01:33:41;;;;;;;12.03;6.77;;;6.90;97.20;;;;;;4979147;28;20027;-85
2021/03/11 01:36:07;;;;;;;11.73;6.33;;;7.00;97.20;;;;;;4975828;28;20022;-86
2021/03/11 01:38:32;;;;;;;13.80;6.23;;;7.00;97.20;;;;;;4977540;28;20022;-86
2021/03/11 01:40:58;;;;;;;9.93;4.73;;;7.10;97.60;;;;;;4959630;28;20454;-85
2021/03/11 01:43:24;;;;;;;11.10;5.33;;;7.10;98.00;;;;;;4964271;28;20062;-86
2021/03/11 01:45:51;;;;;;;12.80;5.13;;;7.20;98.10;;;;;;4984013;28;20109;-85
2021/03/11 01:48:16;;;;;;;9.97;3.97;;;7.20;98.80;;;;;;4981673;28;20116;-84
2021/03/11 01:50:42;;;;;;;10.53;5.50;;;7.20;98.90;;;;;;4980377;28;20022;-86
2021/03/11 01:53:09;;;;;;;9.87;4.80;;;7.20;99.20;;;;;;4978425;28;20038;-85
2021/03/11 01:55:35;;;;;;;9.17;4.10;;;7.20;99.30;;;;;;4966152;28;20033;-86
2021/03/11 01:58:02;;;;;;;9.80;4.67;;;7.20;99.70;;;;;;4963312;28;20030;-85
2021/03/11 02:00:27;;;;;;;8.83;4.60;;;7.20;99.90;;;;;;4983031;28;20037;-85
2021/03/11 02:02:54;;;;;;;8.83;4.80;;;7.10;99.90;;;;;;4983114;28;20026;-86
2021/03/11 02:05:22;;;;;;;8.63;4.60;;;7.10;99.90;;;;;;4981129;28;20434;-86
2021/03/11 02:07:48;;;;;;;9.53;4.67;;;7.10;99.90;;;;;;4970182;28;20268;-85
2021/03/11 02:10:22;;;;;;;9.03;5.00;;;7.10;99.90;;;;;;4958254;28;20022;-85
2021/03/11 02:13:12;;;;;;;11.23;5.00;;;7.00;99.90;;;;;;4977216;28;20102;-84
2021/03/11 02:16:03;;;;;;;9.37;4.93;;;7.00;99.90;;;;;;4977511;28;20455;-86
2021/03/11 02:18:39;;;;;;;9.97;5.00;;;7.00;99.90;;;;;;4967991;28;20033;-86
2021/03/11 02:21:17;;;;;;;10.70;5.60;;;7.00;99.90;;;;;;4957941;28;20102;-86
2021/03/11 02:24:24;;;;;;;9.47;5.43;;;7.00;99.90;;;;;;4980626;28;20019;-86
2021/03/11 02:27:11;;;;;;;11.63;6.00;;;7.00;99.90;;;;;;4969786;28;20038;-86
2021/03/11 02:29:41;;;;;;;11.50;6.10;;;6.90;99.90;;;;;;4971157;28;20070;-86
2021/03/11 02:32:11;;;;;;;10.67;5.87;;;6.90;99.90;;;;;;4971383;28;20018;-85
2021/03/11 02:34:40;;;;;;;10.27;6.17;;;6.90;99.90;;;;;;4960806;28;20026;-85
2021/03/11 02:37:15;;;;;;;13.20;5.87;;;6.90;99.90;;;;;;4969217;28;20156;-85
2021/03/11 02:39:56;;;;;;;12.07;5.50;;;6.80;99.90;;;;;;4973471;28;20105;-85
2021/03/11 02:42:24;;;;;;;10.97;5.90;;;6.80;99.90;;;;;;4979902;28;20037;-86
2021/03/11 02:44:51;;;;;;;10.43;5.97;;;6.80;99.90;;;;;;4972599;28;20055;-84
2021/03/11 02:47:17;;;;;;;11.20;5.70;;;6.80;99.90;;;;;;4983329;28;20022;-85
2021/03/11 02:49:44;;;;;;;12.67;6.67;;;6.80;99.90;;;;;;4962089;28;20033;-85
2021/03/11 02:52:11;;;;;;;10.70;5.93;;;6.80;99.90;;;;;;4968262;28;20559;-85
2021/03/11 02:54:37;;;;;;;11.33;6.90;;;6.80;99.90;;;;;;4965594;28;20023;-85
2021/03/11 02:57:05;;;;;;;13.20;6.53;;;6.80;99.90;;;;;;4957175;28;20023;-85
2021/03/11 02:59:32;;;;;;;14.47;6.50;;;6.80;99.90;;;;;;4963377;28;20019;-84
2021/03/11 03:02:00;;;;;;;10.50;6.30;;;6.80;99.90;;;;;;4975746;28;20031;-86
2021/03/11 03:04:28;;;;;;;12.50;6.70;;;6.80;99.90;;;;;;4973153;28;20034;-86
2021/03/11 03:06:54;;;;;;;12.57;6.90;;;6.80;99.90;;;;;;4966765;28;20042;-86
2021/03/11 03:09:21;;;;;;;12.50;6.83;;;6.80;99.50;;;;;;4987626;28;20085;-87
2021/03/11 03:11:47;;;;;;;13.53;7.13;;;6.80;99.00;;;;;;4962565;28;20042;-85
2021/03/11 03:14:13;;;;;;;13.00;7.03;;;6.80;99.00;;;;;;4960064;28;20034;-85
2021/03/11 03:16:40;;;;;;;13.43;7.00;;;6.80;99.20;;;;;;4976374;28;20114;-84
2021/03/11 03:19:07;;;;;;;12.33;6.90;;;6.80;99.10;;;;;;4973984;28;20039;-86
2021/03/11 03:21:33;;;;;;;13.90;7.50;;;6.80;99.60;;;;;;4963748;28;20034;-86
2021/03/11 03:23:59;;;;;;;11.60;7.23;;;6.70;99.30;;;;;;4970914;28;20053;-86
2021/03/11 03:26:25;;;;;;;11.77;7.27;;;6.70;99.00;;;;;;4981202;28;20034;-86
2021/03/11 03:28:51;;;;;;;12.70;6.83;;;6.70;99.60;;;;;;4979586;28;20026;-86
2021/03/11 03:31:16;;;;;;;11.80;6.60;;;6.70;99.60;;;;;;4976347;28;20105;-86
2021/03/11 03:33:42;;;;;;;14.87;7.67;;;6.70;99.90;;;;;;4965039;28;20031;-85
2021/03/11 03:36:07;;;;;;;12.40;6.87;;;6.70;99.90;;;;;;4979152;28;20043;-84
2021/03/11 03:38:33;;;;;;;12.83;7.30;;;6.60;99.90;;;;;;4958210;28;20037;-86
2021/03/11 03:41:01;;;;;;;14.50;6.87;;;6.70;99.90;;;;;;4984493;28;20084;-86
2021/03/11 03:43:30;;;;;;;12.60;7.43;;;6.60;99.90;;;;;;4982865;28;20035;-85
2021/03/11 03:46:05;;;;;;;13.10;7.13;;;6.70;99.90;;;;;;4974069;28;20066;-85
2021/03/11 03:48:51;;;;;;;12.63;6.30;;;6.70;99.90;;;;;;4978677;28;20452;-85
2021/03/11 03:51:28;;;;;;;10.60;6.03;;;6.70;99.90;;;;;;4987810;28;20086;-85
2021/03/11 03:54:10;;;;;;;12.07;5.73;;;6.70;99.90;;;;;;4984696;28;20031;-85
2021/03/11 03:56:38;;;;;;;;;;;6.70;99.90;;;;;;4956419;28;20439;-85
2021/03/11 03:59:08;;;;;;;7.13;3.20;;;6.80;99.90;;;;;;4979470;28;19910;-86
2021/03/11 04:01:39;;;;;;;9.73;4.63;;;7.00;99.90;;;;;;4963574;28;20031;-85
2021/03/11 04:04:07;;;;;;;7.37;4.07;;;7.00;99.90;;;;;;4964083;28;20070;-85
2021/03/11 04:06:33;;;;;;;8.40;4.10;;;7.20;99.90;;;;;;4966946;28;20022;-84
2021/03/11 04:09:03;;;;;;;7.83;3.80;;;7.30;99.90;;;;;;4961625;28;20340;-85
2021/03/11 04:11:30;;;;;;;8.67;4.03;;;7.30;99.90;;;;;;4967998;28;20054;-83
2021/03/11 04:13:57;;;;;;;9.37;3.50;;;7.40;99.90;;;;;;4958888;28;20098;-85
2021/03/11 04:16:23;;;;;;;7.10;3.33;;;7.40;99.90;;;;;;4985727;28;20097;-85
2021/03/11 04:18:52;;;;;;;8.33;3.70;;;7.50;99.90;;;;;;4978200;28;20506;-85
2021/03/11 04:21:18;;;;;;;6.87;3.47;;;7.50;99.90;;;;;;4980934;28;20035;-86
2021/03/11 04:23:46;;;;;;;7.90;2.90;;;7.60;99.90;;;;;;4976105;28;20034;-86
2021/03/11 04:26:12;;;;;;;8.77;2.80;;;7.70;99.90;;;;;;4966862;28;20042;-85
2021/03/11 04:28:39;;;;;;;7.10;2.93;;;7.80;99.90;;;;;;4985631;28;20384;-86
2021/03/11 04:31:05;;;;;;;6.50;2.20;;;7.90;99.90;;;;;;4961070;28;20023;-86
2021/03/11 04:33:31;;;;;;;5.73;2.23;;;8.00;99.90;;;;;;4962342;28;20110;-86
2021/03/11 04:35:58;;;;;;;6.73;3.10;;;8.20;99.90;;;;;;4965835;28;20106;-84
2021/03/11 04:38:24;;;;;;;5.67;2.57;;;8.20;99.90;;;;;;4968305;28;20419;-85
2021/03/11 04:40:52;;;;;;;8.67;2.70;;;8.30;99.90;;;;;;4963848;28;20022;-85
2021/03/11 04:43:17;;;;;;;4.00;1.57;;;8.30;99.90;;;;;;4970137;28;20053;-85
2021/03/11 04:45:44;;;;;;;6.13;2.30;;;8.40;99.90;;;;;;4969507;28;20220;-86
2021/03/11 04:48:12;;;;;;;6.57;2.43;;;8.50;99.90;;;;;;4962600;28;20050;-85
2021/03/11 04:50:39;;;;;;;6.57;2.30;;;8.50;99.90;;;;;;4960263;28;20030;-84
2021/03/11 04:53:05;;;;;;;5.57;2.53;;;8.40;99.90;;;;;;4977221;28;20026;-85
2021/03/11 04:55:31;;;;;;;5.53;1.60;;;8.50;99.90;;;;;;4969766;28;20022;-85
2021/03/11 04:57:57;;;;;;;6.47;1.93;;;8.60;99.90;;;;;;4982519;28;20089;-86
2021/03/11 05:00:25;;;;;;;4.40;2.00;;;8.50;99.90;;;;;;4978703;28;20575;-84
2021/03/11 05:02:50;;;;;;;9.80;2.10;;;8.50;99.90;;;;;;4982203;28;20054;-86
2021/03/11 05:05:35;;;;;;;8.10;2.00;;;8.60;99.90;;;;;;4980717;28;20471;-86
2021/03/11 05:08:02;;;;;;;4.77;2.30;;;8.60;99.90;;;;;;4967081;28;20035;-84
2021/03/11 05:10:28;;;;;;;6.80;2.20;;;8.60;99.90;;;;;;4967071;28;20054;-85
2021/03/11 05:12:54;;;;;;;6.43;2.20;;;8.60;99.90;;;;;;4981817;28;20400;-85
2021/03/11 05:15:20;;;;;;;5.03;1.92;;;8.60;99.90;;;;;;4969722;28;20041;-85
2021/03/11 05:17:45;;;;;;;5.53;1.93;;;8.60;99.90;;;;;;4961999;28;20022;-84
2021/03/11 05:20:12;;;;;;;3.97;1.92;;;8.60;99.90;;;;;;4964524;28;20093;-85
2021/03/11 05:22:38;;;;;;;5.57;2.57;;;8.60;99.90;;;;;;4965597;28;20055;-85
2021/03/11 05:25:06;;;;;;;5.00;2.30;;;8.60;99.90;;;;;;4979171;28;20054;-85
2021/03/11 05:27:31;;;;;;;5.53;2.40;;;8.60;99.90;;;;;;4980781;28;20034;-86
2021/03/11 05:29:57;;;;;;;7.05;2.10;;;8.50;99.90;;;;;;4959982;28;20030;-85
2021/03/11 05:32:22;;;;;;;5.60;2.30;;;8.50;99.90;;;;;;4988795;28;20030;-85
2021/03/11 05:34:48;;;;;;;6.80;2.70;;;8.60;99.90;;;;;;4964718;28;20377;-84
2021/03/11 05:37:13;;;;;;;4.67;2.43;;;8.60;99.90;;;;;;4971089;28;20029;-86
2021/03/11 05:39:39;;;;;;;3.77;1.80;;;8.60;99.90;;;;;;4983369;28;20058;-85
2021/03/11 05:42:08;;;;;;;7.37;2.20;;;8.60;99.90;;;;;;4979359;28;20551;-86
2021/03/11 05:44:35;;;;;;;11.00;2.07;;;8.60;99.90;;;;;;4970499;28;20022;-85
2021/03/11 05:47:01;;;;;;;7.40;2.08;;;8.60;99.90;;;;;;4979201;28;20023;-85
2021/03/11 05:49:27;;;;;;;6.60;2.40;;;8.60;99.90;;;;;;4988199;28;20109;-84
2021/03/11 05:51:53;;;;;;;5.00;2.30;;;8.60;99.90;;;;;;4979641;28;20030;-85
2021/03/11 05:54:19;;;;;;;6.37;2.37;;;8.60;99.90;;;;;;4978426;28;20089;-85
2021/03/11 05:56:44;;;;;;;5.10;1.73;;;8.50;99.90;;;;;;4979958;28;20023;-85
2021/03/11 05:59:10;;;;;;;4.67;2.10;;;8.50;99.90;;;;;;4978780;28;20694;-86
2021/03/11 06:01:36;;;;;;;5.30;2.20;;;8.50;99.90;;;;;;4960308;28;20030;-84
2021/03/11 06:04:02;;;;;;;7.40;2.33;;;8.50;99.90;;;;;;4957713;28;20031;-85
2021/03/11 06:06:30;;;;;;;6.27;2.30;;;8.50;99.90;;;;;;4967844;28;20027;-85
2021/03/11 06:08:57;;;;;;;7.03;2.37;;;8.60;99.90;;;;;;4973414;28;20061;-85
2021/03/11 06:11:23;;;;;;;6.43;2.03;;;8.60;99.90;;;;;;4978962;28;20023;-84
2021/03/11 06:13:50;;;;;;;5.40;2.30;;;8.60;99.90;;;;;;4985073;28;20034;-84
2021/03/11 06:16:21;;;;;;;3.70;1.43;;;8.70;99.90;;;;;;4977427;28;20141;-84
2021/03/11 06:18:49;;;;;;;5.43;2.37;;;8.70;99.90;;;;;;4960236;28;20023;-84
2021/03/11 06:21:16;;;;;;;7.77;1.90;;;8.70;99.90;;;;;;4967697;28;20402;-86
2021/03/11 06:23:41;;;;;;;3.47;1.77;;;8.70;99.90;;;;;;4963768;28;20086;-84
2021/03/11 06:26:10;;;;;;;4.67;1.90;;;8.80;99.90;;;;;;4974626;28;20026;-84
2021/03/11 06:28:49;;;;;;;6.35;2.22;;;8.70;99.90;;;;;;4980992;28;20027;-84
2021/03/11 06:31:33;;;;;;;5.90;2.23;;;8.70;99.90;;;;;;4974364;28;20113;-84
2021/03/11 06:34:00;;;;;;;5.10;1.73;;;8.70;99.90;;;;;;4976513;28;20034;-85
2021/03/11 06:36:31;;;;;;;4.60;1.70;;;8.80;99.90;;;;;;4970263;28;20035;-85
2021/03/11 06:39:00;;;;;;;3.97;1.45;;;8.90;99.90;;;;;;4976893;28;20027;-85
2021/03/11 06:41:43;;;;;;;3.83;1.43;;;8.90;99.90;;;;;;4971136;28;20061;-85
2021/03/11 06:44:09;;;;;;;4.50;1.88;;;8.90;99.90;;;;;;4975482;28;20089;-85
2021/03/11 06:46:34;;;;;;;5.67;1.60;;;8.90;99.90;;;;;;4960819;28;20034;-85
2021/03/11 06:49:08;;;;;;;3.23;1.20;;;9.00;99.90;;;;;;4968429;28;20108;-86
2021/03/11 06:51:34;;;;;;;5.63;1.55;;;9.10;99.90;;;;;;4975518;28;20019;-85
2021/03/11 06:54:01;;;;;;;4.43;1.40;;;9.10;99.90;;;;;;4973143;28;20026;-85
2021/03/11 06:56:27;;;;;;;5.18;1.65;;;9.10;99.90;;;;;;4958284;28;20132;-85
2021/03/11 06:58:59;;;;;;;5.10;1.75;;;9.10;99.90;;;;;;4969817;28;20388;-85
2021/03/11 07:01:26;;;;;;;7.13;1.33;;;9.10;99.90;;;;;;4972347;28;20542;-85
2021/03/11 07:03:52;;;;;;;5.05;1.25;;;9.10;99.90;;;;;;4963359;28;20094;-86
2021/03/11 07:06:27;;;;;;;5.30;1.63;;;9.10;99.90;;;;;;4961785;28;20391;-85
2021/03/11 07:09:06;;;;;;;5.38;1.73;;;9.20;99.90;;;;;;4982813;28;20035;-85
2021/03/11 07:11:53;;;;;;;3.42;1.40;;;9.20;99.90;;;;;;4975528;28;20023;-86
2021/03/11 07:14:26;;;;;;;7.00;1.70;;;9.20;99.90;;;;;;4962726;28;20026;-85
2021/03/11 07:16:52;;;;;;;6.43;1.50;;;9.40;99.90;;;;;;4963812;28;20035;-85
2021/03/11 07:19:20;;;;;;;4.15;1.35;;;9.30;99.90;;;;;;4963500;28;20400;-85
2021/03/11 07:21:51;;;;;;;6.10;1.75;;;9.40;99.90;;;;;;4962261;28;20054;-86
2021/03/11 07:24:33;;;;;;;5.15;1.48;;;9.40;99.90;;;;;;4978200;28;20042;-86
2021/03/11 07:27:01;;;;;;;3.70;1.30;;;9.40;99.90;;;;;;4979865;28;20027;-84
2021/03/11 07:29:28;;;;;;;3.75;1.02;;;9.50;99.90;;;;;;4965447;28;20035;-85
2021/03/11 07:32:02;;;;;;;5.15;1.38;;;9.50;99.90;;;;;;4965516;28;20046;-85
2021/03/11 07:34:32;;;;;;;7.07;1.10;;;9.60;99.90;;;;;;4969106;28;20019;-86
2021/03/11 07:36:58;;;;;;;5.35;1.48;;;9.60;99.90;;;;;;4970430;28;20031;-84
2021/03/11 07:39:37;;;;;;;3.00;1.35;;;9.60;99.90;;;;;;4961264;28;20034;-85
2021/03/11 07:42:08;;;;;;;2.63;0.93;;;9.60;99.90;;;;;;4987462;28;20039;-85
2021/03/11 07:44:34;;;;;;;7.07;1.17;;;9.60;99.90;;;;;;4973005;28;20054;-86
2021/03/11 07:47:01;;;;;;;2.67;0.88;;;9.70;99.90;;;;;;4964372;28;20034;-86
2021/03/11 07:49:28;;;;;;;4.32;1.27;;;9.80;99.90;;;;;;4975482;28;20023;-87
2021/03/11 07:51:55;;;;;;;5.38;1.05;;;9.90;99.90;;;;;;4976148;28;20109;-87
2021/03/11 07:54:21;;;;;;;5.05;1.42;;;9.90;99.90;;;;;;4963082;28;20050;-85
2021/03/11 07:56:50;;;;;;;2.53;0.85;;;9.90;99.90;;;;;;4968332;28;20065;-86
2021/03/11 07:59:15;;;;;;;2.78;1.00;;;10.00;99.90;;;;;;4961123;28;20041;-84
2021/03/11 08:01:58;;;;;;;2.53;0.80;;;10.00;99.90;;;;;;4959694;28;20031;-84
2021/03/11 08:04:30;;;;;;;2.05;0.90;;;10.10;99.90;;;;;;4952869;28;20049;-84
2021/03/11 08:07:15;;;;;;;3.72;1.15;;;10.10;99.90;;;;;;4972926;28;20054;-84
2021/03/11 08:09:42;;;;;;;2.60;1.10;;;10.20;99.90;;;;;;4968496;28;20039;-84
2021/03/11 08:12:27;;;;;;;2.75;0.70;;;10.30;99.90;;;;;;4957591;28;20035;-84
2021/03/11 08:15:01;;;;;;;2.95;0.98;;;10.30;99.90;;;;;;4973943;28;20400;-84
2021/03/11 08:17:46;;;;;;;3.67;1.00;;;10.40;99.90;;;;;;4974206;28;20034;-84
2021/03/11 08:20:24;;;;;;;2.33;0.90;;;10.40;99.90;;;;;;4958358;28;20038;-85
2021/03/11 08:22:56;;;;;;;1.95;0.70;;;10.40;99.90;;;;;;4973274;28;20117;-84
2021/03/11 08:25:34;;;;;;;2.00;0.80;;;10.50;99.90;;;;;;4971572;28;20117;-84
2021/03/11 08:28:04;;;;;;;3.25;0.73;;;10.60;99.90;;;;;;4973389;28;20035;-84
2021/03/11 08:30:39;;;;;;;3.45;1.00;;;10.70;99.90;;;;;;4961192;28;20101;-84
2021/03/11 08:33:35;;;;;;;2.80;1.00;;;10.60;99.90;;;;;;4970184;28;20023;-84
2021/03/11 08:36:02;;;;;;;6.53;0.90;;;10.60;99.90;;;;;;4955250;28;20113;-84
2021/03/11 08:38:31;;;;;;;6.43;1.05;;;10.70;99.90;;;;;;4957357;28;20035;-84
2021/03/11 08:41:04;;;;;;;2.67;1.00;;;10.80;99.90;;;;;;4971319;28;20031;-84
2021/03/11 08:43:41;;;;;;;2.83;1.17;;;10.80;99.90;;;;;;4970363;28;20031;-84
2021/03/11 08:46:14;;;;;;;4.68;1.83;;;10.80;99.90;;;;;;4967854;28;20620;-84
2021/03/11 08:48:46;;;;;;;3.58;0.88;;;10.90;99.90;;;;;;4958910;28;20110;-84
2021/03/11 08:51:18;;;;;;;3.33;1.00;;;11.00;99.90;;;;;;4950492;28;20835;-84
2021/03/11 08:53:52;;;;;;;2.30;1.00;;;11.00;99.90;;;;;;4959225;28;20062;-84
2021/03/11 08:56:18;;;;;;;3.10;1.08;;;11.10;99.90;;;;;;4960248;28;20097;-84
2021/03/11 08:58:59;;;;;;;5.03;1.38;;;11.10;99.90;;;;;;4957389;28;20116;-84
2021/03/11 09:01:31;;;;;;;2.72;0.95;;;11.10;99.90;;;;;;4977230;28;20110;-85
2021/03/11 09:03:59;;;;;;;2.35;0.55;;;11.20;99.90;;;;;;4958273;28;20093;-84
2021/03/11 09:07:01;;;;;;;2.53;0.85;;;11.20;99.90;;;;;;4966514;28;20124;-84
2021/03/11 09:09:51;;;;;;;3.83;1.20;;;11.30;99.90;;;;;;4971905;28;20228;-84
2021/03/11 09:12:26;;;;;;;2.88;0.93;;;11.40;99.90;;;;;;4971618;28;20069;-85
2021/03/11 09:14:55;;;;;;;3.33;0.98;;;11.60;99.90;;;;;;4958070;28;20035;-84
2021/03/11 09:17:29;;;;;;;1.85;0.70;;;11.70;99.90;;;;;;4971127;28;20129;-84
2021/03/11 09:20:00;;;;;;;2.63;0.82;;;11.70;99.90;;;;;;4971118;28;20133;-84
2021/03/11 09:22:37;;;;;;;2.80;0.98;;;11.70;99.90;;;;;;4956702;28;20419;-83
2021/03/11 09:25:10;;;;;;;2.83;0.88;;;11.80;99.90;;;;;;4977508;28;20094;-84
2021/03/11 09:27:41;;;;;;;2.67;1.10;;;11.80;99.90;;;;;;4973299;28;20038;-84
2021/03/11 09:30:11;;;;;;;2.97;0.80;;;11.80;99.90;;;;;;4972997;28;20027;-83
2021/03/11 09:32:38;;;;;;;3.47;0.77;;;11.70;99.90;;;;;;4971389;28;20038;-83
2021/03/11 09:35:13;;;;;;;2.15;0.90;;;11.80;99.90;;;;;;4961463;28;20365;-84
2021/03/11 09:37:50;;;;;;;2.55;0.73;;;11.80;99.90;;;;;;4969866;28;20035;-84
2021/03/11 09:40:34;;;;;;;2.85;0.65;;;11.80;99.90;;;;;;4970032;28;20049;-84
2021/03/11 09:43:14;;;;;;;2.78;0.80;;;11.90;99.90;;;;;;4951390;28;20045;-83
2021/03/11 09:45:43;;;;;;;1.02;0.55;;;11.90;99.90;;;;;;4965470;28;20129;-84
2021/03/11 09:48:10;;;;;;;2.30;0.75;;;12.00;99.90;;;;;;4970578;28;20039;-84
2021/03/11 09:50:50;;;;;;;1.98;0.90;;;12.10;99.90;;;;;;4968418;28;20030;-83
2021/03/11 09:53:17;;;;;;;2.22;0.82;;;12.30;99.90;;;;;;4970520;28;20148;-83
2021/03/11 09:55:43;;;;;;;2.30;0.80;;;12.40;99.90;;;;;;4955065;28;20058;-83
2021/03/11 09:58:19;;;;;;;3.30;0.60;;;12.50;99.90;;;;;;4969442;28;20530;-83
2021/03/11 10:00:46;;;;;;;3.45;0.77;;;12.60;99.90;;;;;;4970876;28;20041;-84
2021/03/11 10:03:21;;;;;;;2.70;0.75;;;12.60;99.90;;;;;;4968330;28;20043;-86
2021/03/11 10:06:06;;;;;;;1.80;0.50;;;12.60;99.90;;;;;;4953720;28;20030;-86
2021/03/11 10:08:39;;;;;;;1.63;0.40;;;12.70;99.90;;;;;;4970370;28;20140;-85
2021/03/11 10:11:19;;;;;;;2.78;0.50;;;12.60;99.90;;;;;;4968813;28;20137;-86
2021/03/11 10:13:51;;;;;;;1.27;0.40;;;12.60;99.90;;;;;;4968291;28;20450;-86
2021/03/11 10:16:19;;;;;;;0.98;0.35;;;12.70;99.90;;;;;;4970022;28;20030;-85
2021/03/11 10:19:05;;;;;;;1.38;0.50;;;12.70;99.90;;;;;;4971122;28;20027;-85
2021/03/11 10:21:43;;;;;;;0.50;0.30;;;12.80;99.90;;;;;;4953731;28;20030;-85
2021/03/11 10:24:09;;;;;;;2.50;0.50;;;12.90;99.90;;;;;;4968500;28;20396;-85
2021/03/11 10:26:35;;;;;;;1.73;0.40;;;13.00;99.90;;;;;;4954552;28;20109;-84
2021/03/11 10:29:07;;;;;;;0.90;0.47;;;13.10;99.90;;;;;;4953227;28;20484;-83
2021/03/11 10:31:33;;;;;;;1.48;0.40;;;13.20;99.90;;;;;;4966777;28;20031;-85
2021/03/11 10:34:07;;;;;;;2.30;0.40;;;13.10;99.90;;;;;;4956495;28;20101;-86
2021/03/11 10:36:34;;;;;;;1.58;0.38;;;13.10;99.90;;;;;;4959632;28;20158;-85
2021/03/11 10:39:13;;;;;;;1.73;0.47;;;13.20;99.90;;;;;;4974373;28;20053;-85
2021/03/11 10:42:04;;;;;;;3.80;0.50;;;13.20;99.90;;;;;;4956163;28;20516;-86
2021/03/11 10:44:39;;;;;;;1.00;0.35;;;13.30;99.90;;;;;;4952042;28;20122;-85
2021/03/11 10:47:19;;;;;;;1.13;0.40;;;13.50;99.90;;;;;;4976996;28;20035;-85
2021/03/11 10:49:48;;;;;;;1.38;0.40;;;13.70;99.90;;;;;;4972417;28;20231;-85
2021/03/11 10:52:16;;;;;;;1.40;0.32;;;13.80;99.90;;;;;;4955547;28;20132;-86
2021/03/11 10:54:42;;;;;;;1.70;0.35;;;13.80;99.90;;;;;;4958710;28;20027;-85
2021/03/11 10:57:13;;;;;;;5.25;0.50;;;13.90;99.90;;;;;;4975724;28;20364;-85
2021/03/11 10:59:58;;;;;;;1.10;0.30;;;14.00;99.90;;;;;;4971821;28;20035;-84
2021/03/11 11:02:28;;;;;;;1.90;0.40;;;13.90;99.90;;;;;;4978939;28;20022;-86
2021/03/11 11:04:55;;;;;;;3.10;0.35;;;13.70;99.90;;;;;;4962370;28;20027;-85
2021/03/11 11:07:22;;;;;;;0.85;0.32;;;13.60;99.90;;;;;;4960072;28;20121;-86
2021/03/11 11:09:48;;;;;;;1.38;0.40;;;13.50;99.90;;;;;;4972197;28;20054;-86
2021/03/11 11:12:16;;;;;;;3.22;0.30;;;13.30;99.90;;;;;;4961991;28;20026;-84
2021/03/11 11:14:47;;;;;;;1.48;0.30;;;13.30;99.90;;;;;;4971278;28;20373;-86
2021/03/11 11:17:13;;;;;;;1.45;0.40;;;13.20;99.90;;;;;;4957774;28;20602;-85
2021/03/11 11:19:40;;;;;;;2.25;0.52;;;13.00;99.90;;;;;;4959286;28;20037;-85
2021/03/11 11:22:08;;;;;;;2.47;0.40;;;12.90;99.90;;;;;;4963311;28;20023;-84
2021/03/11 11:24:43;;;;;;;3.60;0.50;;;12.70;99.90;;;;;;4962562;28;20156;-84
2021/03/11 11:27:13;;;;;;;1.08;0.32;;;12.60;99.90;;;;;;4960622;28;20129;-84
2021/03/11 11:29:39;;;;;;;2.05;0.50;;;12.30;99.90;;;;;;4956824;28;20075;-84
2021/03/11 11:32:06;;;;;;;1.63;0.40;;;12.20;99.90;;;;;;4966134;28;20109;-84
2021/03/11 11:34:32;;;;;;;1.85;0.30;;;12.00;99.90;;;;;;4969629;28;20038;-84
2021/03/11 11:36:58;;;;;;;2.33;0.50;;;11.90;99.90;;;;;;4972860;28;20027;-84
2021/03/11 11:39:25;;;;;;;1.50;0.30;;;11.90;99.90;;;;;;4966757;28;20035;-84
2021/03/11 11:41:51;;;;;;;2.47;0.40;;;11.80;99.90;;;;;;4982313;28;20335;-84
2021/03/11 11:44:18;;;;;;;2.35;0.40;;;11.80;99.90;;;;;;4973180;28;20457;-83
2021/03/11 11:46:45;;;;;;;1.30;0.50;;;11.70;99.90;;;;;;4973478;28;20030;-83
2021/03/11 11:49:11;;;;;;;2.80;0.45;;;11.60;99.90;;;;;;4973432;28;20824;-84
2021/03/11 11:51:38;;;;;;;1.85;0.40;;;11.60;99.90;;;;;;4976348;28;20039;-85
2021/03/11 11:54:04;;;;;;;1.40;0.30;;;11.50;99.90;;;;;;4978245;28;20034;-85
2021/03/11 11:56:30;;;;;;;2.75;0.47;;;11.40;99.90;;;;;;4977424;28;20023;-85
2021/03/11 11:58:56;;;;;;;2.10;0.40;;;11.40;99.90;;;;;;4959102;28;20388;-85
2021/03/11 12:01:22;;;;;;;1.48;0.45;;;11.30;99.90;;;;;;4959706;28;20130;-85
2021/03/11 12:03:48;;;;;;;1.52;0.50;;;11.30;99.90;;;;;;4978295;28;20033;-85
2021/03/11 12:06:13;;;;;;;1.98;0.47;;;11.30;99.90;;;;;;4977935;28;20064;-85
2021/03/11 12:08:40;;;;;;;3.05;0.70;;;11.30;99.90;;;;;;4964711;28;20035;-85
2021/03/11 12:11:06;;;;;;;1.38;0.55;;;11.40;99.90;;;;;;4961758;28;20038;-87
2021/03/11 12:13:32;;;;;;;0.98;0.40;;;11.50;99.90;;;;;;4952683;28;20035;-86
2021/03/11 12:15:58;;;;;;;3.65;1.25;;;11.60;99.90;;;;;;4971559;28;20022;-87
2021/03/11 12:18:24;;;;;;;1.05;0.50;;;11.60;99.90;;;;;;4972141;28;20127;-86
2021/03/11 12:20:50;;;;;;;1.85;0.60;;;11.60;99.90;;;;;;4972991;28;20125;-87
2021/03/11 12:23:17;;;;;;;1.00;0.30;;;11.70;99.90;;;;;;4977627;28;20057;-86
2021/03/11 12:25:43;;;;;;;1.10;0.45;;;11.70;99.90;;;;;;4973335;28;20650;-85
2021/03/11 12:28:08;;;;;;;0.95;0.30;;;11.60;99.90;;;;;;4976669;28;20034;-85
2021/03/11 12:30:34;;;;;;;0.63;0.30;;;11.60;99.90;;;;;;4975940;28;20051;-84
2021/03/11 12:33:00;;;;;;;1.10;0.35;;;11.70;99.90;;;;;;4964562;28;20023;-85
2021/03/11 12:35:26;;;;;;;1.10;0.40;;;11.70;99.90;;;;;;4976893;28;20472;-84
2021/03/11 12:37:52;;;;;;;1.30;0.35;;;11.80;99.90;;;;;;4979119;28;20039;-84
2021/03/11 12:40:27;;;;;;;4.15;0.60;;;11.80;99.90;;;;;;4957232;28;20558;-84
2021/03/11 12:42:53;;;;;;;2.00;0.50;;;11.80;99.90;;;;;;4976965;28;20033;-84
2021/03/11 12:45:21;;;;;;;1.38;0.47;;;11.90;99.90;;;;;;4973764;28;20026;-85
2021/03/11 12:47:47;;;;;;;2.17;0.65;;;12.10;99.90;;;;;;4957287;28;20105;-85
2021/03/11 12:50:14;;;;;;;1.27;0.55;;;12.10;99.90;;;;;;4955789;28;20031;-85
2021/03/11 12:52:41;;;;;;;1.23;0.40;;;12.10;99.90;;;;;;4956755;28;20022;-86
2021/03/11 12:55:14;;;;;;;1.80;0.45;;;12.10;99.90;;;;;;4957826;28;20026;-86
2021/03/11 12:57:40;;;;;;;1.65;0.45;;;12.10;99.90;;;;;;4973074;28;20133;-85
2021/03/11 13:00:09;;;;;;;0.85;0.30;;;12.20;99.90;;;;;;4962645;28;20114;-85
2021/03/11 13:02:35;;;;;;;1.42;0.50;;;12.30;99.90;;;;;;4960183;28;20022;-86